This is the latest recevied weather packets stored in our database for station/object LRBO. If no packets are shown the sender has not sent any weather packets the latest 1 day(s).
| Time | Temp. | Humidity | Pressure | Rain* | Wind** | Luminosity | Snow |
|---|---|---|---|---|---|---|---|
| 1778054634 | 20° C | 40% | 1016 hPa | - | - | - | - |
| 1778053734 | 17.22° C | 52% | 1016 hPa | - | - | - | - |
| 1778052834 | 17.22° C | 52% | 1016 hPa | - | - | - | - |
| 1778051933 | 17.22° C | 52% | 1016 hPa | - | - | - | - |
| 1778051033 | 17.22° C | 52% | 1016 hPa | - | - | - | - |
| 1778048334 | 16.11° C | 52% | 1015 hPa | - | - | - | - |
| 1778047435 | 16.11° C | 52% | 1015 hPa | - | - | - | - |
| 1778046535 | 13.89° C | 59% | 1015 hPa | - | - | - | - |
| 1778045642 | 13.89° C | 59% | 1015 hPa | - | - | - | - |
| 1778044734 | 13.89° C | 59% | 1015 hPa | - | - | - | - |
| 1778043847 | 13.89° C | 59% | 1015 hPa | - | - | - | - |
| 1778042949 | 10° C | 71% | 1015 hPa | - | - | - | - |
| 1778041134 | 10° C | 71% | 1015 hPa | - | - | - | - |
| 1778040233 | 10° C | 71% | 1015 hPa | - | - | - | - |
| 1778039334 | 7.78° C | 76% | 1015 hPa | - | - | - | - |
| 1778037533 | 7.78° C | 76% | 1015 hPa | - | - | - | - |
| 1778036633 | 7.78° C | 76% | 1015 hPa | - | - | - | - |
| 1778034833 | 7.78° C | 87% | 1016 hPa | - | - | - | - |
| 1778032133 | 8.89° C | 87% | 1016 hPa | - | - | - | - |
| 1778031233 | 8.89° C | 87% | 1016 hPa | - | - | - | - |
| 1778030334 | 8.89° C | 87% | 1016 hPa | - | - | - | - |
| 1778029433 | 8.89° C | 87% | 1016 hPa | - | - | - | - |
| 1778028531 | 8.89° C | 87% | 1016 hPa | - | - | - | - |
| 1778026734 | 10° C | 88% | 1016 hPa | - | - | - | - |
| 1778025834 | 10° C | 88% | 1016 hPa | - | - | - | - |
* Rain since midnight (hover to see other rain measurements)
** Current wind speed in m/s (hover to see current wind gust speed)